createdAt,value
2022-09-01T04:00:42.381Z,13.78
2022-09-01T04:04:52.563Z,13.72
2022-09-01T04:09:02.553Z,13.55
2022-09-01T04:13:11.658Z,13.38
2022-09-01T04:17:34.697Z,13.42
2022-09-01T04:21:38.256Z,13.44
2022-09-01T04:25:41.552Z,13.45
2022-09-01T04:29:46.736Z,13.47
2022-09-01T04:33:53.634Z,13.66
2022-09-01T04:37:57.409Z,13.58
2022-09-01T04:41:59.984Z,13.67
2022-09-01T04:46:03.275Z,13.81
2022-09-01T04:50:13.886Z,13.70
2022-09-01T04:54:19.642Z,13.57
2022-09-01T04:58:22.964Z,13.50
2022-09-01T05:02:28.121Z,13.59
2022-09-01T05:06:33.847Z,13.81
2022-09-01T05:10:42.148Z,14.12
2022-09-01T05:14:53.992Z,14.24
2022-09-01T05:18:57.930Z,14.03
2022-09-01T05:23:06.363Z,14.13
2022-09-01T05:27:12.525Z,14.15
2022-09-01T05:31:19.651Z,14.43
2022-09-01T05:35:24.686Z,14.67
2022-09-01T05:39:38.351Z,15.03
2022-09-01T05:43:45.323Z,15.18
2022-09-01T05:47:48.855Z,15.55
2022-09-01T05:51:55.051Z,15.76
2022-09-01T05:55:59.894Z,15.84
2022-09-01T06:00:10.941Z,15.85
2022-09-01T06:04:16.076Z,15.92
2022-09-01T06:08:21.533Z,15.99
2022-09-01T06:12:26.847Z,15.90
2022-09-01T06:16:31.006Z,16.15
2022-09-01T06:20:33.870Z,16.27
2022-09-01T06:24:39.637Z,16.41
2022-09-01T06:28:43.634Z,16.75
2022-09-01T06:32:46.776Z,17.04
2022-09-01T06:36:51.721Z,17.46
2022-09-01T06:41:01.935Z,17.84
2022-09-01T06:45:10.296Z,18.06
2022-09-01T06:49:12.911Z,18.24
2022-09-01T06:53:34.439Z,18.46
2022-09-01T07:02:04.660Z,18.92
2022-09-01T07:07:00.118Z,19.12
2022-09-01T07:12:08.124Z,19.43
2022-09-01T07:20:24.755Z,20.00
2022-09-01T07:24:31.818Z,20.12
2022-09-01T07:29:13.326Z,20.44
2022-09-01T07:47:19.882Z,21.55
2022-09-01T07:51:40.776Z,21.71
2022-09-01T07:55:45.541Z,21.82
2022-09-01T07:59:50.375Z,22.15
2022-09-01T08:03:57.934Z,22.36
2022-09-01T08:08:01.118Z,22.59
2022-09-01T08:12:09.659Z,22.83
2022-09-01T08:16:17.848Z,22.87
2022-09-01T08:20:21.316Z,22.82
2022-09-01T08:24:26.889Z,23.03
2022-09-01T08:28:31.135Z,23.37
2022-09-01T08:32:34.426Z,23.56
2022-09-01T08:36:37.570Z,23.60
2022-09-01T08:40:42.814Z,23.84
2022-09-01T08:44:58.396Z,24.06
2022-09-01T08:49:24.260Z,24.50
2022-09-01T08:53:57.877Z,24.91
2022-09-01T08:58:04.812Z,25.39
2022-09-01T09:02:44.768Z,24.82
2022-09-01T09:06:56.052Z,24.94
2022-09-01T09:11:02.163Z,24.61
2022-09-01T09:15:21.874Z,24.74
2022-09-01T09:19:29.737Z,24.71
2022-09-01T09:23:40.343Z,24.97
2022-09-01T09:27:45.295Z,24.60
2022-09-01T09:31:50.687Z,24.75
2022-09-01T09:35:57.591Z,24.79
2022-09-01T09:40:12.083Z,24.90
2022-09-01T09:44:23.147Z,24.95
2022-09-01T09:48:30.628Z,25.17
2022-09-01T09:52:34.485Z,24.80
2022-09-01T09:56:37.219Z,24.99
2022-09-01T10:00:40.126Z,25.24
2022-09-01T10:04:44.195Z,25.26
2022-09-01T10:08:48.190Z,25.62
2022-09-01T10:12:50.828Z,25.74
2022-09-01T10:16:59.212Z,25.69
2022-09-01T10:21:04.363Z,25.61
2022-09-01T10:25:13.086Z,25.20
2022-09-01T10:29:20.995Z,24.98
2022-09-01T10:33:23.845Z,25.08
2022-09-01T10:37:27.722Z,25.32
2022-09-01T10:41:59.494Z,25.38
2022-09-01T10:46:15.703Z,25.31
2022-09-01T10:50:35.343Z,24.65
2022-09-01T10:54:57.883Z,25.24
2022-09-01T11:03:56.549Z,25.59
2022-09-01T11:08:01.501Z,25.37
2022-09-01T11:12:44.262Z,25.51
2022-09-01T11:17:16.958Z,25.65
2022-09-01T11:21:26.243Z,25.51
2022-09-01T11:25:39.224Z,25.50
2022-09-01T11:29:55.696Z,25.86
2022-09-01T11:34:20.864Z,25.85
2022-09-01T11:38:24.511Z,25.79
2022-09-01T11:42:30.611Z,25.68
2022-09-01T11:46:36.679Z,25.81
2022-09-01T11:50:42.928Z,26.14
2022-09-01T11:54:47.551Z,26.18
2022-09-01T11:58:50.113Z,26.11
2022-09-01T12:02:54.405Z,25.82
2022-09-01T12:07:02.290Z,26.34
2022-09-01T12:11:07.862Z,26.17
2022-09-01T12:15:18.898Z,26.69
2022-09-01T12:19:25.379Z,27.33
2022-09-01T12:23:31.621Z,26.56
2022-09-01T12:27:36.571Z,27.11
2022-09-01T12:31:43.080Z,27.28
2022-09-01T12:35:46.271Z,27.50
2022-09-01T12:39:52.089Z,27.53
2022-09-01T12:43:55.060Z,27.63
2022-09-01T12:47:58.843Z,28.11
2022-09-01T12:52:25.329Z,28.20
2022-09-01T12:56:31.874Z,27.64
2022-09-01T14:18:49.039Z,28.55
2022-09-01T14:22:53.016Z,28.85
2022-09-01T14:26:55.551Z,28.98
2022-09-01T14:35:00.917Z,28.30
2022-09-01T14:39:03.501Z,27.69
2022-09-01T14:43:09.684Z,27.49
2022-09-01T14:47:18.223Z,27.40
2022-09-01T14:51:26.946Z,27.02
2022-09-01T14:55:51.521Z,26.91
2022-09-01T14:59:57.735Z,27.02
2022-09-01T15:04:00.516Z,27.06
2022-09-01T15:08:04.572Z,27.24
2022-09-01T15:12:09.431Z,27.50
2022-09-01T15:20:37.502Z,28.58
2022-09-01T15:24:41.474Z,28.40
2022-09-01T15:28:44.785Z,28.96
2022-09-01T15:32:49.403Z,29.21
2022-09-01T15:36:51.955Z,29.52
2022-09-01T15:40:58.530Z,29.26
2022-09-01T15:45:01.509Z,29.51
2022-09-01T15:49:06.677Z,29.97
2022-09-01T15:53:13.120Z,29.52
2022-09-01T15:57:18.316Z,29.48
2022-09-01T16:01:22.290Z,28.87
2022-09-01T16:05:25.922Z,27.87
2022-09-01T16:09:29.126Z,27.90
2022-09-01T16:13:33.048Z,27.77
2022-09-01T16:17:49.290Z,27.54
2022-09-01T16:21:58.872Z,28.01
2022-09-01T16:26:01.920Z,28.01
2022-09-01T16:30:08.576Z,28.06
2022-09-01T16:34:18.156Z,27.71
2022-09-01T16:38:34.887Z,27.59
2022-09-01T16:42:46.954Z,27.80
2022-09-01T16:47:00.794Z,27.34
2022-09-01T16:51:12.657Z,26.75
2022-09-01T16:55:24.668Z,26.60
2022-09-01T16:59:38.249Z,26.18
2022-09-01T17:03:55.567Z,25.73
2022-09-01T17:08:07.706Z,25.38
2022-09-01T17:12:23.520Z,25.09
2022-09-01T17:16:30.674Z,25.15
2022-09-01T17:20:40.540Z,24.98
2022-09-01T17:24:46.168Z,25.07
2022-09-01T17:28:55.262Z,24.93
2022-09-01T17:33:12.124Z,24.37
2022-09-01T17:37:33.025Z,24.24
2022-09-01T17:41:39.580Z,23.92
2022-09-01T17:45:51.451Z,23.90
2022-09-01T17:49:59.716Z,23.64
2022-09-01T17:54:14.682Z,23.48
2022-09-01T17:58:32.430Z,23.16
2022-09-01T18:03:14.779Z,23.20
2022-09-01T18:07:34.921Z,23.13
2022-09-01T18:11:44.448Z,22.99
2022-09-01T18:15:52.534Z,22.85
2022-09-01T18:20:05.011Z,22.63
2022-09-01T18:24:16.529Z,22.30
2022-09-01T18:28:20.425Z,22.04
2022-09-01T18:32:35.123Z,21.86
2022-09-01T18:36:52.086Z,21.42
2022-09-01T18:41:10.334Z,21.14
2022-09-01T18:45:25.561Z,21.01
2022-09-01T18:49:34.970Z,20.78
2022-09-01T18:53:46.580Z,20.60
2022-09-01T18:57:54.446Z,20.74
2022-09-01T19:02:08.531Z,20.63
2022-09-01T19:06:24.177Z,20.65
2022-09-01T19:10:33.142Z,20.72
2022-09-01T19:14:43.287Z,20.99
2022-09-01T19:18:55.896Z,21.01
2022-09-01T19:23:03.453Z,21.24
2022-09-01T19:27:11.133Z,21.30
2022-09-01T19:31:22.117Z,21.30
2022-09-01T19:35:26.868Z,21.24
2022-09-01T19:39:31.870Z,21.39
2022-09-01T19:43:38.611Z,21.35
2022-09-01T19:47:48.248Z,21.14
2022-09-01T19:51:59.591Z,20.68
2022-09-01T19:56:08.623Z,20.46
2022-09-01T20:00:15.421Z,20.29
2022-09-01T20:04:27.747Z,20.25
2022-09-01T20:08:38.001Z,19.98
2022-09-01T20:12:48.499Z,19.77
2022-09-01T20:16:54.119Z,19.73
2022-09-01T20:21:00.448Z,19.56
2022-09-01T20:25:10.204Z,19.54
2022-09-01T20:29:19.292Z,19.60
2022-09-01T20:33:34.644Z,19.15
2022-09-01T20:37:39.914Z,19.04
2022-09-01T20:41:52.916Z,18.78
2022-09-01T20:45:55.522Z,18.83
2022-09-01T20:50:00.080Z,18.53
2022-09-01T20:54:24.411Z,18.44
2022-09-01T20:58:34.539Z,18.37
